This is the latest recevied weather packets stored in our database for station/object KO4FR. If no packets are shown the sender has not sent any weather packets the latest 10 day(s).
| Time | Temp. | Humidity | Pressure | Rain* | Wind** | Luminosity | Snow |
|---|---|---|---|---|---|---|---|
| 1777156500 | 16.67° C | 14% | 1009.3 hPa | 4.83 mm | - | - | - |
| 1777156200 | 16.67° C | 15% | 1008.7 hPa | 4.57 mm | - | - | - |
| 1777155901 | 16.67° C | 18% | 1008 hPa | 4.57 mm | - | - | - |
| 1777155600 | 17.22° C | 21% | 1008.1 hPa | 4.57 mm | - | - | - |
| 1777155300 | 17.22° C | 24% | 1008.4 hPa | 4.57 mm | - | - | - |
| 1777155000 | 17.22° C | 29% | 1008.6 hPa | 4.57 mm | - | - | - |
| 1777154700 | 17.22° C | 35% | 1008.7 hPa | 4.57 mm | - | - | - |
| 1777154400 | 17.22° C | 40% | 1008.6 hPa | 4.32 mm | - | - | - |
| 1777154100 | 17.78° C | 42% | 1008.7 hPa | 4.06 mm | - | - | - |
| 1777153800 | 18.33° C | 46% | 1008.6 hPa | 3.81 mm | - | - | - |
| 1777153500 | 18.89° C | 50% | 1009 hPa | 2.54 mm | - | - | - |
| 1777153200 | 19.44° C | 62% | 1009.2 hPa | 1.52 mm | - | - | - |
| 1777152900 | 20.56° C | 69% | 1008.6 hPa | 0 mm | - | - | - |
| 1777152600 | 21.67° C | 67% | 1008 hPa | 0 mm | - | - | - |
| 1777152300 | 22.78° C | 63% | 1008.1 hPa | 0 mm | - | - | - |
| 1777152000 | 25° C | 58% | 1008.2 hPa | 0 mm | - | - | - |
| 1777151700 | 26.11° C | 56% | 1007.5 hPa | 0 mm | - | - | - |
| 1777151400 | 26.11° C | 55% | 1006.9 hPa | 0 mm | - | - | - |
| 1777151100 | 26.67° C | 53% | 1006.7 hPa | 0 mm | - | - | - |
| 1777150800 | 27.78° C | 51% | 1006.8 hPa | 0 mm | - | - | - |
| 1777150500 | 28.33° C | 48% | 1006.8 hPa | 0 mm | - | - | - |
| 1777150200 | 29.44° C | 44% | 1006.8 hPa | 0 mm | - | - | - |
| 1777149900 | 29.44° C | 39% | 1006.6 hPa | 0 mm | - | - | - |
| 1777149600 | 30° C | 34% | 1006.6 hPa | 0 mm | - | - | - |
| 1777149299 | 30° C | 34% | 1006.5 hPa | 0 mm | - | - | - |
* Rain latest hour (hover to see other rain measurements)
** Current wind speed in m/s (hover to see current wind gust speed)